sensor_id;sensor_type;location;lat;lon;timestamp;P1;durP1;ratioP1;P2;durP2;ratioP2
68866;SDS011;56451;44.804;20.476;2023-07-29T00:00:56;5.82;;;4.10;;
68866;SDS011;56451;44.804;20.476;2023-07-29T00:03:22;7.30;;;4.70;;
68866;SDS011;56451;44.804;20.476;2023-07-29T00:05:48;5.95;;;4.50;;
68866;SDS011;56451;44.804;20.476;2023-07-29T00:08:15;7.45;;;4.43;;
68866;SDS011;56451;44.804;20.476;2023-07-29T00:10:40;6.10;;;4.20;;
68866;SDS011;56451;44.804;20.476;2023-07-29T00:13:06;7.23;;;4.00;;
68866;SDS011;56451;44.804;20.476;2023-07-29T00:15:33;10.27;;;4.80;;
68866;SDS011;56451;44.804;20.476;2023-07-29T00:17:59;7.90;;;5.03;;
68866;SDS011;56451;44.804;20.476;2023-07-29T00:20:25;8.73;;;5.35;;
68866;SDS011;56451;44.804;20.476;2023-07-29T00:22:51;9.02;;;5.22;;
68866;SDS011;56451;44.804;20.476;2023-07-29T00:25:20;13.27;;;6.13;;
68866;SDS011;56451;44.804;20.476;2023-07-29T00:27:47;11.48;;;6.30;;
68866;SDS011;56451;44.804;20.476;2023-07-29T00:30:13;8.95;;;6.45;;
68866;SDS011;56451;44.804;20.476;2023-07-29T00:32:39;12.73;;;6.50;;
68866;SDS011;56451;44.804;20.476;2023-07-29T00:35:05;13.87;;;7.10;;
68866;SDS011;56451;44.804;20.476;2023-07-29T00:37:31;12.85;;;7.47;;
68866;SDS011;56451;44.804;20.476;2023-07-29T00:39:57;11.48;;;7.03;;
68866;SDS011;56451;44.804;20.476;2023-07-29T00:42:24;10.00;;;7.38;;
68866;SDS011;56451;44.804;20.476;2023-07-29T00:44:50;11.82;;;7.80;;
68866;SDS011;56451;44.804;20.476;2023-07-29T00:47:16;12.10;;;7.77;;
68866;SDS011;56451;44.804;20.476;2023-07-29T00:49:44;11.77;;;7.35;;
68866;SDS011;56451;44.804;20.476;2023-07-29T00:52:11;16.80;;;7.95;;
68866;SDS011;56451;44.804;20.476;2023-07-29T00:54:38;11.70;;;7.40;;
68866;SDS011;56451;44.804;20.476;2023-07-29T00:57:05;10.25;;;7.10;;
68866;SDS011;56451;44.804;20.476;2023-07-29T00:59:34;15.97;;;7.23;;
68866;SDS011;56451;44.804;20.476;2023-07-29T01:02:01;12.63;;;7.68;;
68866;SDS011;56451;44.804;20.476;2023-07-29T01:04:30;11.32;;;7.13;;
68866;SDS011;56451;44.804;20.476;2023-07-29T01:17:39;9.38;;;6.43;;
68866;SDS011;56451;44.804;20.476;2023-07-29T01:20:26;9.48;;;6.40;;
68866;SDS011;56451;44.804;20.476;2023-07-29T01:22:53;10.45;;;6.03;;
68866;SDS011;56451;44.804;20.476;2023-07-29T01:25:19;10.00;;;6.70;;
68866;SDS011;56451;44.804;20.476;2023-07-29T01:27:46;10.65;;;6.05;;
68866;SDS011;56451;44.804;20.476;2023-07-29T01:30:12;12.40;;;5.60;;
68866;SDS011;56451;44.804;20.476;2023-07-29T01:32:42;11.80;;;6.20;;
68866;SDS011;56451;44.804;20.476;2023-07-29T01:35:17;8.87;;;5.83;;
68866;SDS011;56451;44.804;20.476;2023-07-29T01:38:10;11.75;;;5.90;;
68866;SDS011;56451;44.804;20.476;2023-07-29T01:40:43;11.30;;;6.25;;
68866;SDS011;56451;44.804;20.476;2023-07-29T01:43:10;9.93;;;5.95;;
68866;SDS011;56451;44.804;20.476;2023-07-29T01:45:37;10.25;;;6.55;;
68866;SDS011;56451;44.804;20.476;2023-07-29T01:48:04;11.33;;;5.80;;
68866;SDS011;56451;44.804;20.476;2023-07-29T01:50:30;9.77;;;6.20;;
68866;SDS011;56451;44.804;20.476;2023-07-29T01:52:58;9.25;;;5.35;;
68866;SDS011;56451;44.804;20.476;2023-07-29T01:55:24;9.73;;;5.80;;
68866;SDS011;56451;44.804;20.476;2023-07-29T01:57:50;8.88;;;5.85;;
68866;SDS011;56451;44.804;20.476;2023-07-29T02:00:21;9.10;;;5.67;;
68866;SDS011;56451;44.804;20.476;2023-07-29T02:02:47;10.50;;;6.13;;
68866;SDS011;56451;44.804;20.476;2023-07-29T02:05:13;8.93;;;5.68;;
68866;SDS011;56451;44.804;20.476;2023-07-29T02:07:39;10.80;;;6.30;;
68866;SDS011;56451;44.804;20.476;2023-07-29T02:10:05;9.27;;;6.27;;
68866;SDS011;56451;44.804;20.476;2023-07-29T02:12:31;9.05;;;5.75;;
68866;SDS011;56451;44.804;20.476;2023-07-29T02:14:57;10.35;;;5.82;;
68866;SDS011;56451;44.804;20.476;2023-07-29T02:17:23;9.07;;;5.73;;
68866;SDS011;56451;44.804;20.476;2023-07-29T02:19:49;10.05;;;5.80;;
68866;SDS011;56451;44.804;20.476;2023-07-29T02:22:16;9.02;;;6.28;;
68866;SDS011;56451;44.804;20.476;2023-07-29T02:24:43;9.63;;;5.97;;
68866;SDS011;56451;44.804;20.476;2023-07-29T02:27:10;9.43;;;5.93;;
68866;SDS011;56451;44.804;20.476;2023-07-29T02:29:37;10.93;;;5.97;;
68866;SDS011;56451;44.804;20.476;2023-07-29T02:32:09;12.38;;;6.45;;
68866;SDS011;56451;44.804;20.476;2023-07-29T02:34:42;10.00;;;5.93;;
68866;SDS011;56451;44.804;20.476;2023-07-29T02:37:08;10.65;;;6.65;;
68866;SDS011;56451;44.804;20.476;2023-07-29T02:39:34;9.13;;;5.80;;
68866;SDS011;56451;44.804;20.476;2023-07-29T02:42:00;11.23;;;5.95;;
68866;SDS011;56451;44.804;20.476;2023-07-29T02:44:26;11.82;;;5.85;;
68866;SDS011;56451;44.804;20.476;2023-07-29T02:46:52;9.13;;;5.53;;
68866;SDS011;56451;44.804;20.476;2023-07-29T02:49:21;8.53;;;5.43;;
68866;SDS011;56451;44.804;20.476;2023-07-29T02:51:47;16.50;;;6.13;;
68866;SDS011;56451;44.804;20.476;2023-07-29T02:54:13;11.48;;;5.65;;
68866;SDS011;56451;44.804;20.476;2023-07-29T02:56:39;10.60;;;5.47;;
68866;SDS011;56451;44.804;20.476;2023-07-29T02:59:05;8.07;;;5.53;;
68866;SDS011;56451;44.804;20.476;2023-07-29T03:01:31;9.65;;;5.60;;
68866;SDS011;56451;44.804;20.476;2023-07-29T03:03:57;11.95;;;5.32;;
68866;SDS011;56451;44.804;20.476;2023-07-29T03:06:23;10.82;;;5.53;;
68866;SDS011;56451;44.804;20.476;2023-07-29T03:08:49;7.63;;;5.03;;
68866;SDS011;56451;44.804;20.476;2023-07-29T03:11:16;9.95;;;5.63;;
68866;SDS011;56451;44.804;20.476;2023-07-29T03:13:42;8.52;;;5.20;;
68866;SDS011;56451;44.804;20.476;2023-07-29T03:16:12;8.30;;;4.50;;
68866;SDS011;56451;44.804;20.476;2023-07-29T03:18:44;6.55;;;4.53;;
68866;SDS011;56451;44.804;20.476;2023-07-29T03:21:10;9.77;;;5.00;;
68866;SDS011;56451;44.804;20.476;2023-07-29T03:23:37;7.63;;;4.63;;
68866;SDS011;56451;44.804;20.476;2023-07-29T03:26:03;7.10;;;5.32;;
68866;SDS011;56451;44.804;20.476;2023-07-29T03:28:36;8.07;;;5.20;;
68866;SDS011;56451;44.804;20.476;2023-07-29T03:31:03;8.10;;;5.40;;
68866;SDS011;56451;44.804;20.476;2023-07-29T03:33:30;9.03;;;4.63;;
68866;SDS011;56451;44.804;20.476;2023-07-29T03:35:56;6.95;;;4.43;;
68866;SDS011;56451;44.804;20.476;2023-07-29T03:38:21;5.43;;;4.60;;
68866;SDS011;56451;44.804;20.476;2023-07-29T03:40:48;12.50;;;5.03;;
68866;SDS011;56451;44.804;20.476;2023-07-29T03:43:14;8.85;;;4.55;;
68866;SDS011;56451;44.804;20.476;2023-07-29T03:45:40;7.70;;;4.30;;
68866;SDS011;56451;44.804;20.476;2023-07-29T03:48:06;6.35;;;4.28;;
68866;SDS011;56451;44.804;20.476;2023-07-29T03:50:33;8.27;;;4.50;;
68866;SDS011;56451;44.804;20.476;2023-07-29T03:53:01;8.97;;;4.47;;
68866;SDS011;56451;44.804;20.476;2023-07-29T03:55:27;5.15;;;4.15;;
68866;SDS011;56451;44.804;20.476;2023-07-29T03:57:58;7.20;;;4.88;;
68866;SDS011;56451;44.804;20.476;2023-07-29T04:00:25;9.82;;;4.60;;
68866;SDS011;56451;44.804;20.476;2023-07-29T04:02:51;7.35;;;4.70;;
68866;SDS011;56451;44.804;20.476;2023-07-29T04:05:17;6.43;;;4.00;;
68866;SDS011;56451;44.804;20.476;2023-07-29T04:07:43;8.25;;;5.05;;
68866;SDS011;56451;44.804;20.476;2023-07-29T04:10:09;13.70;;;5.47;;
68866;SDS011;56451;44.804;20.476;2023-07-29T04:12:36;10.32;;;5.07;;
68866;SDS011;56451;44.804;20.476;2023-07-29T04:15:03;9.88;;;5.38;;
68866;SDS011;56451;44.804;20.476;2023-07-29T04:17:29;7.87;;;5.13;;
68866;SDS011;56451;44.804;20.476;2023-07-29T04:19:55;9.52;;;4.97;;
68866;SDS011;56451;44.804;20.476;2023-07-29T04:22:25;8.27;;;5.55;;
68866;SDS011;56451;44.804;20.476;2023-07-29T04:24:51;9.00;;;5.72;;
68866;SDS011;56451;44.804;20.476;2023-07-29T04:27:18;8.03;;;5.20;;
68866;SDS011;56451;44.804;20.476;2023-07-29T04:29:43;8.38;;;4.93;;
68866;SDS011;56451;44.804;20.476;2023-07-29T04:32:10;8.70;;;4.78;;
68866;SDS011;56451;44.804;20.476;2023-07-29T04:34:36;7.20;;;4.63;;
68866;SDS011;56451;44.804;20.476;2023-07-29T04:37:02;9.50;;;4.93;;
68866;SDS011;56451;44.804;20.476;2023-07-29T04:39:28;7.63;;;4.78;;
68866;SDS011;56451;44.804;20.476;2023-07-29T04:41:54;10.40;;;5.20;;
68866;SDS011;56451;44.804;20.476;2023-07-29T04:44:20;9.05;;;5.18;;
68866;SDS011;56451;44.804;20.476;2023-07-29T04:46:46;7.67;;;5.17;;
68866;SDS011;56451;44.804;20.476;2023-07-29T04:49:12;8.48;;;4.72;;
68866;SDS011;56451;44.804;20.476;2023-07-29T04:51:37;10.65;;;4.93;;
68866;SDS011;56451;44.804;20.476;2023-07-29T04:54:04;8.50;;;4.68;;
68866;SDS011;56451;44.804;20.476;2023-07-29T04:56:30;8.93;;;4.72;;
68866;SDS011;56451;44.804;20.476;2023-07-29T04:58:55;8.03;;;4.90;;
68866;SDS011;56451;44.804;20.476;2023-07-29T05:01:22;8.40;;;5.00;;
68866;SDS011;56451;44.804;20.476;2023-07-29T05:03:48;8.45;;;4.85;;
68866;SDS011;56451;44.804;20.476;2023-07-29T05:06:13;9.80;;;4.80;;
68866;SDS011;56451;44.804;20.476;2023-07-29T05:08:39;12.13;;;5.57;;
68866;SDS011;56451;44.804;20.476;2023-07-29T05:11:05;8.30;;;5.25;;
68866;SDS011;56451;44.804;20.476;2023-07-29T05:13:31;14.70;;;5.47;;
68866;SDS011;56451;44.804;20.476;2023-07-29T05:15:57;8.82;;;4.88;;
68866;SDS011;56451;44.804;20.476;2023-07-29T05:18:22;5.97;;;4.43;;
68866;SDS011;56451;44.804;20.476;2023-07-29T05:20:49;10.20;;;4.57;;
68866;SDS011;56451;44.804;20.476;2023-07-29T05:23:15;10.32;;;4.82;;
68866;SDS011;56451;44.804;20.476;2023-07-29T05:25:41;8.52;;;4.57;;
68866;SDS011;56451;44.804;20.476;2023-07-29T05:28:07;10.05;;;5.47;;
68866;SDS011;56451;44.804;20.476;2023-07-29T05:30:33;11.20;;;5.50;;
68866;SDS011;56451;44.804;20.476;2023-07-29T05:33:06;9.35;;;5.43;;
68866;SDS011;56451;44.804;20.476;2023-07-29T05:35:34;8.80;;;5.32;;
68866;SDS011;56451;44.804;20.476;2023-07-29T05:38:01;10.38;;;5.03;;
68866;SDS011;56451;44.804;20.476;2023-07-29T05:40:29;7.53;;;4.90;;
68866;SDS011;56451;44.804;20.476;2023-07-29T05:42:55;14.60;;;5.45;;
68866;SDS011;56451;44.804;20.476;2023-07-29T05:45:21;13.63;;;5.72;;
68866;SDS011;56451;44.804;20.476;2023-07-29T05:47:47;8.27;;;4.30;;
68866;SDS011;56451;44.804;20.476;2023-07-29T05:50:13;9.80;;;4.30;;
68866;SDS011;56451;44.804;20.476;2023-07-29T05:52:39;9.18;;;4.43;;
68866;SDS011;56451;44.804;20.476;2023-07-29T05:55:05;7.75;;;3.95;;
68866;SDS011;56451;44.804;20.476;2023-07-29T05:57:32;8.88;;;4.10;;
68866;SDS011;56451;44.804;20.476;2023-07-29T05:59:58;10.43;;;4.45;;
68866;SDS011;56451;44.804;20.476;2023-07-29T06:02:23;9.03;;;3.90;;
68866;SDS011;56451;44.804;20.476;2023-07-29T06:04:51;10.77;;;3.70;;
68866;SDS011;56451;44.804;20.476;2023-07-29T06:07:17;9.73;;;4.13;;
68866;SDS011;56451;44.804;20.476;2023-07-29T06:09:43;7.22;;;4.10;;
68866;SDS011;56451;44.804;20.476;2023-07-29T06:12:09;6.37;;;4.00;;
68866;SDS011;56451;44.804;20.476;2023-07-29T06:14:35;6.35;;;4.28;;
68866;SDS011;56451;44.804;20.476;2023-07-29T06:17:04;6.50;;;3.80;;
68866;SDS011;56451;44.804;20.476;2023-07-29T06:19:32;7.22;;;4.43;;
68866;SDS011;56451;44.804;20.476;2023-07-29T06:21:58;8.33;;;3.63;;
68866;SDS011;56451;44.804;20.476;2023-07-29T06:24:23;6.72;;;4.35;;
68866;SDS011;56451;44.804;20.476;2023-07-29T06:26:49;7.70;;;4.10;;
68866;SDS011;56451;44.804;20.476;2023-07-29T06:29:16;7.85;;;4.10;;
68866;SDS011;56451;44.804;20.476;2023-07-29T06:31:42;8.57;;;4.50;;
68866;SDS011;56451;44.804;20.476;2023-07-29T06:34:07;8.32;;;4.20;;
68866;SDS011;56451;44.804;20.476;2023-07-29T06:36:33;10.40;;;4.80;;
68866;SDS011;56451;44.804;20.476;2023-07-29T06:38:59;9.83;;;4.73;;
68866;SDS011;56451;44.804;20.476;2023-07-29T06:41:25;10.43;;;4.00;;
68866;SDS011;56451;44.804;20.476;2023-07-29T06:43:51;10.43;;;4.40;;
68866;SDS011;56451;44.804;20.476;2023-07-29T06:46:17;8.48;;;4.38;;
68866;SDS011;56451;44.804;20.476;2023-07-29T06:48:43;10.68;;;4.40;;
68866;SDS011;56451;44.804;20.476;2023-07-29T06:51:09;6.67;;;4.27;;
68866;SDS011;56451;44.804;20.476;2023-07-29T06:53:35;6.88;;;3.92;;
68866;SDS011;56451;44.804;20.476;2023-07-29T06:56:02;12.70;;;4.03;;
68866;SDS011;56451;44.804;20.476;2023-07-29T06:58:27;7.75;;;4.15;;
68866;SDS011;56451;44.804;20.476;2023-07-29T07:00:54;6.57;;;3.87;;
68866;SDS011;56451;44.804;20.476;2023-07-29T07:03:20;6.15;;;3.72;;
68866;SDS011;56451;44.804;20.476;2023-07-29T07:05:46;6.97;;;4.10;;
68866;SDS011;56451;44.804;20.476;2023-07-29T07:08:12;8.10;;;4.57;;
68866;SDS011;56451;44.804;20.476;2023-07-29T07:10:37;8.63;;;4.70;;
68866;SDS011;56451;44.804;20.476;2023-07-29T07:13:03;7.05;;;4.20;;
68866;SDS011;56451;44.804;20.476;2023-07-29T07:15:29;9.75;;;4.80;;
68866;SDS011;56451;44.804;20.476;2023-07-29T07:17:55;7.30;;;4.37;;
68866;SDS011;56451;44.804;20.476;2023-07-29T07:20:21;7.45;;;4.63;;
68866;SDS011;56451;44.804;20.476;2023-07-29T07:22:47;8.60;;;4.30;;
68866;SDS011;56451;44.804;20.476;2023-07-29T07:25:13;9.37;;;4.40;;
68866;SDS011;56451;44.804;20.476;2023-07-29T07:27:39;10.75;;;4.65;;
68866;SDS011;56451;44.804;20.476;2023-07-29T07:30:05;9.65;;;4.85;;
68866;SDS011;56451;44.804;20.476;2023-07-29T07:32:31;6.57;;;4.40;;
68866;SDS011;56451;44.804;20.476;2023-07-29T07:34:57;9.50;;;4.18;;
68866;SDS011;56451;44.804;20.476;2023-07-29T07:37:23;10.02;;;4.22;;
68866;SDS011;56451;44.804;20.476;2023-07-29T07:39:50;9.18;;;4.15;;
68866;SDS011;56451;44.804;20.476;2023-07-29T07:42:16;5.78;;;4.32;;
68866;SDS011;56451;44.804;20.476;2023-07-29T07:44:42;8.90;;;4.50;;
68866;SDS011;56451;44.804;20.476;2023-07-29T07:47:08;8.93;;;4.97;;
68866;SDS011;56451;44.804;20.476;2023-07-29T07:49:34;6.72;;;4.28;;
68866;SDS011;56451;44.804;20.476;2023-07-29T07:52:00;9.90;;;4.13;;
68866;SDS011;56451;44.804;20.476;2023-07-29T07:54:25;8.82;;;4.20;;
68866;SDS011;56451;44.804;20.476;2023-07-29T07:56:51;6.35;;;3.67;;
68866;SDS011;56451;44.804;20.476;2023-07-29T07:59:17;5.32;;;3.85;;
68866;SDS011;56451;44.804;20.476;2023-07-29T08:01:43;8.10;;;4.10;;
68866;SDS011;56451;44.804;20.476;2023-07-29T08:04:09;6.63;;;3.75;;
68866;SDS011;56451;44.804;20.476;2023-07-29T08:06:37;6.82;;;4.15;;
68866;SDS011;56451;44.804;20.476;2023-07-29T08:09:03;11.10;;;4.20;;
68866;SDS011;56451;44.804;20.476;2023-07-29T08:11:29;6.90;;;4.20;;
68866;SDS011;56451;44.804;20.476;2023-07-29T08:13:54;11.90;;;4.22;;
68866;SDS011;56451;44.804;20.476;2023-07-29T08:16:20;7.13;;;3.80;;
68866;SDS011;56451;44.804;20.476;2023-07-29T08:18:46;7.80;;;4.33;;
68866;SDS011;56451;44.804;20.476;2023-07-29T08:21:12;6.68;;;3.80;;
68866;SDS011;56451;44.804;20.476;2023-07-29T08:23:38;6.13;;;4.30;;
68866;SDS011;56451;44.804;20.476;2023-07-29T08:26:05;6.57;;;4.13;;
68866;SDS011;56451;44.804;20.476;2023-07-29T08:28:32;8.23;;;4.45;;
68866;SDS011;56451;44.804;20.476;2023-07-29T08:31:02;7.90;;;3.97;;
68866;SDS011;56451;44.804;20.476;2023-07-29T08:33:28;7.40;;;4.15;;
68866;SDS011;56451;44.804;20.476;2023-07-29T08:35:55;6.97;;;4.25;;
68866;SDS011;56451;44.804;20.476;2023-07-29T08:38:21;8.37;;;4.10;;
68866;SDS011;56451;44.804;20.476;2023-07-29T08:44:09;8.95;;;4.03;;
68866;SDS011;56451;44.804;20.476;2023-07-29T08:46:38;6.88;;;3.90;;
68866;SDS011;56451;44.804;20.476;2023-07-29T08:49:05;7.37;;;4.43;;
68866;SDS011;56451;44.804;20.476;2023-07-29T08:51:31;7.57;;;4.32;;
68866;SDS011;56451;44.804;20.476;2023-07-29T08:53:58;10.82;;;4.30;;
68866;SDS011;56451;44.804;20.476;2023-07-29T08:56:24;6.40;;;4.47;;
68866;SDS011;56451;44.804;20.476;2023-07-29T08:58:51;9.27;;;4.32;;
68866;SDS011;56451;44.804;20.476;2023-07-29T09:01:18;8.47;;;4.00;;
68866;SDS011;56451;44.804;20.476;2023-07-29T09:03:44;7.43;;;4.03;;
68866;SDS011;56451;44.804;20.476;2023-07-29T09:06:10;10.25;;;4.30;;
68866;SDS011;56451;44.804;20.476;2023-07-29T09:08:37;7.85;;;3.97;;
68866;SDS011;56451;44.804;20.476;2023-07-29T09:11:03;7.87;;;4.23;;
68866;SDS011;56451;44.804;20.476;2023-07-29T09:13:29;7.60;;;4.22;;
68866;SDS011;56451;44.804;20.476;2023-07-29T09:15:57;8.93;;;4.13;;
68866;SDS011;56451;44.804;20.476;2023-07-29T09:18:23;7.53;;;3.97;;
68866;SDS011;56451;44.804;20.476;2023-07-29T09:20:53;7.60;;;3.90;;
68866;SDS011;56451;44.804;20.476;2023-07-29T09:23:19;6.72;;;4.07;;
68866;SDS011;56451;44.804;20.476;2023-07-29T09:25:48;6.72;;;4.07;;
68866;SDS011;56451;44.804;20.476;2023-07-29T09:28:14;7.85;;;5.18;;
68866;SDS011;56451;44.804;20.476;2023-07-29T09:30:44;9.05;;;4.45;;
68866;SDS011;56451;44.804;20.476;2023-07-29T09:33:11;9.13;;;4.20;;
68866;SDS011;56451;44.804;20.476;2023-07-29T09:35:38;10.88;;;4.68;;
68866;SDS011;56451;44.804;20.476;2023-07-29T09:38:04;6.55;;;4.40;;
68866;SDS011;56451;44.804;20.476;2023-07-29T09:40:35;9.27;;;4.68;;
68866;SDS011;56451;44.804;20.476;2023-07-29T09:43:03;11.00;;;4.65;;
68866;SDS011;56451;44.804;20.476;2023-07-29T09:45:29;7.57;;;4.57;;
68866;SDS011;56451;44.804;20.476;2023-07-29T09:47:56;6.72;;;4.78;;
68866;SDS011;56451;44.804;20.476;2023-07-29T09:50:23;12.45;;;4.97;;
68866;SDS011;56451;44.804;20.476;2023-07-29T09:52:51;18.48;;;5.05;;
68866;SDS011;56451;44.804;20.476;2023-07-29T09:55:18;8.60;;;4.70;;
68866;SDS011;56451;44.804;20.476;2023-07-29T09:57:45;10.23;;;4.63;;
68866;SDS011;56451;44.804;20.476;2023-07-29T10:00:11;10.57;;;4.68;;
68866;SDS011;56451;44.804;20.476;2023-07-29T10:02:38;7.43;;;4.53;;
68866;SDS011;56451;44.804;20.476;2023-07-29T10:05:06;7.88;;;4.68;;
68866;SDS011;56451;44.804;20.476;2023-07-29T10:07:37;9.38;;;4.70;;
68866;SDS011;56451;44.804;20.476;2023-07-29T10:10:04;9.57;;;4.77;;
68866;SDS011;56451;44.804;20.476;2023-07-29T10:12:32;10.30;;;4.97;;
68866;SDS011;56451;44.804;20.476;2023-07-29T10:15:00;8.23;;;4.30;;
68866;SDS011;56451;44.804;20.476;2023-07-29T10:17:29;9.25;;;5.00;;
68866;SDS011;56451;44.804;20.476;2023-07-29T10:19:56;9.40;;;4.57;;
68866;SDS011;56451;44.804;20.476;2023-07-29T10:22:28;7.67;;;4.10;;
68866;SDS011;56451;44.804;20.476;2023-07-29T10:24:59;8.15;;;4.65;;
68866;SDS011;56451;44.804;20.476;2023-07-29T10:30:29;10.68;;;4.65;;
68866;SDS011;56451;44.804;20.476;2023-07-29T10:32:58;7.43;;;4.20;;
68866;SDS011;56451;44.804;20.476;2023-07-29T10:35:26;10.40;;;4.70;;
68866;SDS011;56451;44.804;20.476;2023-07-29T10:37:53;13.85;;;4.60;;
68866;SDS011;56451;44.804;20.476;2023-07-29T10:40:19;11.98;;;4.82;;
68866;SDS011;56451;44.804;20.476;2023-07-29T10:45:37;8.53;;;4.60;;
68866;SDS011;56451;44.804;20.476;2023-07-29T10:48:10;8.27;;;4.53;;
68866;SDS011;56451;44.804;20.476;2023-07-29T10:50:37;4.82;;;4.07;;
68866;SDS011;56451;44.804;20.476;2023-07-29T10:53:04;5.97;;;4.40;;
68866;SDS011;56451;44.804;20.476;2023-07-29T10:58:05;7.47;;;5.00;;
68866;SDS011;56451;44.804;20.476;2023-07-29T11:00:32;6.55;;;4.38;;
68866;SDS011;56451;44.804;20.476;2023-07-29T11:02:59;6.97;;;4.22;;
68866;SDS011;56451;44.804;20.476;2023-07-29T11:05:41;11.48;;;4.35;;
68866;SDS011;56451;44.804;20.476;2023-07-29T11:08:27;11.97;;;5.03;;
68866;SDS011;56451;44.804;20.476;2023-07-29T11:10:58;7.03;;;4.88;;
68866;SDS011;56451;44.804;20.476;2023-07-29T11:13:32;7.20;;;4.82;;
68866;SDS011;56451;44.804;20.476;2023-07-29T11:16:02;8.00;;;5.35;;
68866;SDS011;56451;44.804;20.476;2023-07-29T11:18:31;8.85;;;5.20;;
68866;SDS011;56451;44.804;20.476;2023-07-29T11:20:59;7.10;;;4.47;;
68866;SDS011;56451;44.804;20.476;2023-07-29T11:23:36;9.20;;;5.30;;
68866;SDS011;56451;44.804;20.476;2023-07-29T11:26:03;6.40;;;5.00;;
68866;SDS011;56451;44.804;20.476;2023-07-29T11:28:30;7.50;;;4.72;;
68866;SDS011;56451;44.804;20.476;2023-07-29T11:30:56;7.28;;;5.05;;
68866;SDS011;56451;44.804;20.476;2023-07-29T11:33:24;9.37;;;5.70;;
68866;SDS011;56451;44.804;20.476;2023-07-29T11:35:53;6.85;;;5.18;;
68866;SDS011;56451;44.804;20.476;2023-07-29T11:38:20;8.65;;;5.35;;
68866;SDS011;56451;44.804;20.476;2023-07-29T11:40:58;11.02;;;5.68;;
68866;SDS011;56451;44.804;20.476;2023-07-29T11:43:26;8.30;;;5.30;;
68866;SDS011;56451;44.804;20.476;2023-07-29T11:45:52;10.60;;;5.23;;
68866;SDS011;56451;44.804;20.476;2023-07-29T11:48:26;9.18;;;4.90;;
68866;SDS011;56451;44.804;20.476;2023-07-29T11:50:56;7.28;;;5.47;;
68866;SDS011;56451;44.804;20.476;2023-07-29T11:53:25;5.90;;;5.30;;
68866;SDS011;56451;44.804;20.476;2023-07-29T11:55:53;7.85;;;4.57;;
68866;SDS011;56451;44.804;20.476;2023-07-29T11:58:20;6.43;;;4.50;;
68866;SDS011;56451;44.804;20.476;2023-07-29T12:00:46;6.68;;;4.43;;
68866;SDS011;56451;44.804;20.476;2023-07-29T12:03:12;4.82;;;4.30;;
68866;SDS011;56451;44.804;20.476;2023-07-29T12:05:38;6.28;;;4.55;;
68866;SDS011;56451;44.804;20.476;2023-07-29T12:08:05;4.72;;;3.92;;
68866;SDS011;56451;44.804;20.476;2023-07-29T12:10:31;8.73;;;4.80;;
68866;SDS011;56451;44.804;20.476;2023-07-29T12:12:57;6.72;;;4.13;;
68866;SDS011;56451;44.804;20.476;2023-07-29T12:15:27;9.35;;;5.20;;
68866;SDS011;56451;44.804;20.476;2023-07-29T12:17:54;4.72;;;3.72;;
68866;SDS011;56451;44.804;20.476;2023-07-29T12:20:22;6.03;;;3.85;;
68866;SDS011;56451;44.804;20.476;2023-07-29T12:22:52;13.07;;;4.97;;
68866;SDS011;56451;44.804;20.476;2023-07-29T12:25:21;9.38;;;4.50;;
68866;SDS011;56451;44.804;20.476;2023-07-29T12:27:48;6.82;;;4.60;;
68866;SDS011;56451;44.804;20.476;2023-07-29T12:30:14;7.65;;;4.13;;
68866;SDS011;56451;44.804;20.476;2023-07-29T12:32:46;6.43;;;4.53;;
68866;SDS011;56451;44.804;20.476;2023-07-29T12:35:13;9.03;;;4.27;;
68866;SDS011;56451;44.804;20.476;2023-07-29T12:37:40;6.00;;;4.75;;
68866;SDS011;56451;44.804;20.476;2023-07-29T12:40:20;9.15;;;4.38;;
68866;SDS011;56451;44.804;20.476;2023-07-29T12:42:48;9.68;;;5.60;;
68866;SDS011;56451;44.804;20.476;2023-07-29T12:45:16;6.20;;;4.68;;
68866;SDS011;56451;44.804;20.476;2023-07-29T12:47:44;5.40;;;4.47;;
68866;SDS011;56451;44.804;20.476;2023-07-29T12:50:10;8.40;;;4.35;;
68866;SDS011;56451;44.804;20.476;2023-07-29T12:52:36;4.85;;;4.13;;
68866;SDS011;56451;44.804;20.476;2023-07-29T12:55:02;5.78;;;4.35;;
68866;SDS011;56451;44.804;20.476;2023-07-29T12:57:28;5.13;;;4.30;;
68866;SDS011;56451;44.804;20.476;2023-07-29T12:59:54;7.30;;;4.80;;
68866;SDS011;56451;44.804;20.476;2023-07-29T13:02:20;6.45;;;4.30;;
68866;SDS011;56451;44.804;20.476;2023-07-29T13:04:46;7.70;;;4.57;;
68866;SDS011;56451;44.804;20.476;2023-07-29T13:07:12;7.07;;;4.57;;
68866;SDS011;56451;44.804;20.476;2023-07-29T13:09:38;5.60;;;4.47;;
68866;SDS011;56451;44.804;20.476;2023-07-29T13:12:04;6.75;;;4.60;;
68866;SDS011;56451;44.804;20.476;2023-07-29T13:14:30;6.35;;;4.43;;
68866;SDS011;56451;44.804;20.476;2023-07-29T13:16:56;8.13;;;4.85;;
68866;SDS011;56451;44.804;20.476;2023-07-29T13:19:22;5.90;;;4.67;;
68866;SDS011;56451;44.804;20.476;2023-07-29T13:21:48;5.53;;;4.07;;
68866;SDS011;56451;44.804;20.476;2023-07-29T13:24:14;6.88;;;4.35;;
68866;SDS011;56451;44.804;20.476;2023-07-29T13:26:40;5.13;;;4.60;;
68866;SDS011;56451;44.804;20.476;2023-07-29T13:29:07;6.70;;;4.67;;
68866;SDS011;56451;44.804;20.476;2023-07-29T13:31:33;8.93;;;5.00;;
68866;SDS011;56451;44.804;20.476;2023-07-29T13:33:59;8.55;;;5.30;;
68866;SDS011;56451;44.804;20.476;2023-07-29T13:36:25;6.60;;;4.88;;
68866;SDS011;56451;44.804;20.476;2023-07-29T13:38:51;8.63;;;5.17;;
68866;SDS011;56451;44.804;20.476;2023-07-29T13:41:17;7.75;;;5.10;;
68866;SDS011;56451;44.804;20.476;2023-07-29T13:43:43;7.47;;;5.07;;
68866;SDS011;56451;44.804;20.476;2023-07-29T13:46:09;8.23;;;4.93;;
68866;SDS011;56451;44.804;20.476;2023-07-29T13:48:36;7.38;;;5.05;;
68866;SDS011;56451;44.804;20.476;2023-07-29T13:51:01;6.80;;;4.90;;
68866;SDS011;56451;44.804;20.476;2023-07-29T13:53:27;9.02;;;5.47;;
68866;SDS011;56451;44.804;20.476;2023-07-29T13:55:53;6.18;;;5.00;;
68866;SDS011;56451;44.804;20.476;2023-07-29T13:58:19;7.43;;;4.80;;
68866;SDS011;56451;44.804;20.476;2023-07-29T14:00:45;7.72;;;4.93;;
68866;SDS011;56451;44.804;20.476;2023-07-29T14:03:11;8.95;;;4.75;;
68866;SDS011;56451;44.804;20.476;2023-07-29T14:05:37;6.47;;;5.17;;
68866;SDS011;56451;44.804;20.476;2023-07-29T14:08:03;6.73;;;5.07;;
68866;SDS011;56451;44.804;20.476;2023-07-29T14:10:29;5.80;;;4.47;;
68866;SDS011;56451;44.804;20.476;2023-07-29T14:12:55;5.43;;;4.50;;
68866;SDS011;56451;44.804;20.476;2023-07-29T14:15:21;6.43;;;4.83;;
68866;SDS011;56451;44.804;20.476;2023-07-29T14:17:47;9.23;;;5.35;;
68866;SDS011;56451;44.804;20.476;2023-07-29T14:20:13;6.07;;;5.00;;
68866;SDS011;56451;44.804;20.476;2023-07-29T14:22:38;9.55;;;5.40;;
68866;SDS011;56451;44.804;20.476;2023-07-29T14:25:05;8.20;;;4.60;;
68866;SDS011;56451;44.804;20.476;2023-07-29T14:27:32;6.22;;;4.53;;
68866;SDS011;56451;44.804;20.476;2023-07-29T14:29:58;8.60;;;4.75;;
68866;SDS011;56451;44.804;20.476;2023-07-29T14:32:24;8.10;;;4.57;;
68866;SDS011;56451;44.804;20.476;2023-07-29T14:34:51;7.53;;;4.82;;
68866;SDS011;56451;44.804;20.476;2023-07-29T14:37:17;7.05;;;4.80;;
68866;SDS011;56451;44.804;20.476;2023-07-29T14:39:43;6.45;;;5.05;;
68866;SDS011;56451;44.804;20.476;2023-07-29T14:42:09;9.85;;;5.50;;
68866;SDS011;56451;44.804;20.476;2023-07-29T14:44:35;5.57;;;4.80;;
68866;SDS011;56451;44.804;20.476;2023-07-29T14:47:01;6.95;;;5.20;;
68866;SDS011;56451;44.804;20.476;2023-07-29T14:49:27;10.60;;;5.00;;
68866;SDS011;56451;44.804;20.476;2023-07-29T14:51:53;10.50;;;5.15;;